Time;durP1;ratioP1;P1;durP2;ratioP2;P2;SDS_P1;SDS_P2;PMS_P1;PMS_P2;Temp;Humidity;BMP_temperature;BMP_pressure;BME280_temperature;BME280_humidity;BME280_pressure;Samples;Min_cycle;Max_cycle;Signal;HPM_P1;HPM_P2
2022/01/08 00:01:29;;;;;;;3.28;2.03;;;7.70;97.20;;;;;;5003951;28;20376;-49
2022/01/08 00:03:55;;;;;;;2.67;1.73;;;7.70;97.20;;;;;;5004140;28;20456;-49
2022/01/08 00:06:20;;;;;;;1.38;1.27;;;7.70;97.20;;;;;;5003266;28;20080;-49
2022/01/08 00:08:48;;;;;;;3.70;2.08;;;7.60;97.10;;;;;;5001023;28;20026;-49
2022/01/08 00:11:18;;;;;;;2.25;1.20;;;7.60;97.10;;;;;;5001868;28;20042;-49
2022/01/08 00:13:44;;;;;;;2.25;1.55;;;7.60;97.10;;;;;;5004100;28;20026;-49
2022/01/08 00:16:09;;;;;;;1.05;0.90;;;7.70;97.20;;;;;;5001656;28;20113;-49
2022/01/08 00:18:35;;;;;;;1.67;1.23;;;7.70;97.20;;;;;;5003528;28;20018;-49
2022/01/08 00:21:01;;;;;;;0.30;0.30;;;7.70;97.20;;;;;;5004834;28;20492;-49
2022/01/08 00:23:26;;;;;;;1.25;1.15;;;7.60;97.10;;;;;;5001050;28;20033;-49
2022/01/08 00:25:52;;;;;;;2.03;1.40;;;7.70;97.10;;;;;;5003636;28;20360;-49
2022/01/08 00:28:18;;;;;;;0.95;0.80;;;7.70;97.20;;;;;;5003865;28;20091;-49
2022/01/08 00:30:44;;;;;;;1.33;1.23;;;7.70;97.20;;;;;;5002832;28;20033;-49
2022/01/08 00:33:10;;;;;;;2.80;1.85;;;7.70;97.20;;;;;;5002348;28;20041;-49
2022/01/08 00:35:36;;;;;;;1.85;1.30;;;7.70;97.20;;;;;;5001470;28;20030;-48
2022/01/08 00:38:01;;;;;;;1.30;1.20;;;7.70;97.20;;;;;;5003422;28;20045;-49
2022/01/08 00:40:27;;;;;;;1.67;1.20;;;7.70;97.20;;;;;;5003650;28;20080;-49
2022/01/08 00:42:53;;;;;;;1.58;1.48;;;7.70;97.20;;;;;;5001027;28;20330;-49
2022/01/08 00:45:18;;;;;;;3.10;1.75;;;7.70;97.20;;;;;;5002317;28;20527;-49
2022/01/08 00:47:44;;;;;;;1.33;1.23;;;7.60;97.20;;;;;;5002152;28;20037;-49
2022/01/08 00:50:12;;;;;;;2.40;1.20;;;7.60;97.20;;;;;;5003605;28;20563;-49
2022/01/08 00:52:38;;;;;;;5.85;1.90;;;7.60;97.10;;;;;;5000356;28;20167;-49
2022/01/08 00:55:05;;;;;;;2.25;1.40;;;7.60;97.20;;;;;;4999582;28;20041;-49
2022/01/08 00:57:30;;;;;;;0.98;0.98;;;7.60;97.20;;;;;;5003302;28;20038;-49
2022/01/08 00:59:56;;;;;;;2.10;1.67;;;7.70;97.10;;;;;;5001938;28;20029;-49
2022/01/08 01:02:22;;;;;;;2.47;1.55;;;7.60;97.20;;;;;;5003030;28;20030;-49
2022/01/08 01:04:47;;;;;;;1.83;1.65;;;7.60;97.10;;;;;;5001064;28;20022;-49
2022/01/08 01:07:13;;;;;;;2.47;1.35;;;7.60;97.20;;;;;;5002206;28;20025;-49
2022/01/08 01:09:39;;;;;;;1.52;1.23;;;7.60;97.10;;;;;;4999896;28;20054;-49
2022/01/08 01:12:05;;;;;;;1.75;1.30;;;7.60;97.20;;;;;;5001815;28;20437;-49
2022/01/08 01:14:31;;;;;;;2.35;1.92;;;7.60;97.20;;;;;;5001372;28;20365;-50
2022/01/08 01:16:57;;;;;;;2.20;1.58;;;7.60;97.20;;;;;;5003501;28;20072;-49
2022/01/08 01:19:23;;;;;;;2.50;1.50;;;7.60;97.20;;;;;;5001193;28;20389;-49
2022/01/08 01:21:49;;;;;;;2.42;1.60;;;7.60;97.20;;;;;;5001183;28;20034;-49
2022/01/08 01:24:20;;;;;;;2.83;1.55;;;7.60;97.30;;;;;;5004003;28;20018;-49
2022/01/08 01:27:14;;;;;;;1.98;1.50;;;7.60;97.20;;;;;;5001891;28;20441;-49
2022/01/08 01:48:25;;;;;;;4.60;1.75;;;7.60;97.30;;;;;;4999564;28;20476;-49
2022/01/08 01:50:51;;;;;;;1.70;1.40;;;7.60;97.30;;;;;;5001787;28;20038;-49
2022/01/08 01:53:16;;;;;;;1.73;1.15;;;7.60;97.30;;;;;;4999204;28;20925;-49
2022/01/08 01:55:42;;;;;;;1.60;1.45;;;7.60;97.20;;;;;;5002322;28;20034;-49
2022/01/08 01:58:09;;;;;;;2.20;1.50;;;7.60;97.30;;;;;;5003485;28;20018;-49
2022/01/08 02:00:36;;;;;;;2.55;2.00;;;7.60;97.30;;;;;;4999710;28;20039;-49
2022/01/08 02:03:02;;;;;;;1.55;1.42;;;7.60;97.30;;;;;;4999829;28;20030;-49
2022/01/08 02:05:28;;;;;;;1.45;1.23;;;7.50;97.20;;;;;;5002792;28;20026;-49
2022/01/08 02:07:55;;;;;;;5.78;2.92;;;7.60;97.30;;;;;;5001831;28;20025;-49
2022/01/08 02:10:23;;;;;;;2.65;1.65;;;7.60;97.30;;;;;;5000711;28;20535;-49
2022/01/08 02:12:49;;;;;;;2.08;1.55;;;7.50;97.20;;;;;;4998928;28;20022;-49
2022/01/08 02:15:14;;;;;;;2.25;1.55;;;7.50;97.30;;;;;;5002000;28;20340;-49
2022/01/08 02:17:40;;;;;;;4.25;1.63;;;7.60;97.30;;;;;;5000157;28;20472;-49
2022/01/08 02:20:07;;;;;;;1.45;0.95;;;7.50;97.30;;;;;;5002328;28;20033;-49
2022/01/08 02:22:32;;;;;;;2.38;1.20;;;7.50;97.20;;;;;;5001275;28;20039;-49
2022/01/08 02:24:58;;;;;;;3.70;2.33;;;7.50;97.20;;;;;;4999365;28;20092;-49
2022/01/08 02:27:24;;;;;;;1.92;1.30;;;7.60;97.30;;;;;;5001449;28;20054;-49
2022/01/08 02:29:50;;;;;;;2.58;1.50;;;7.50;97.20;;;;;;5000860;28;20046;-49
2022/01/08 02:32:19;;;;;;;2.85;1.77;;;7.50;97.20;;;;;;4999190;28;20121;-49
2022/01/08 02:34:47;;;;;;;3.55;2.13;;;7.50;97.30;;;;;;4999967;28;20037;-49
2022/01/08 02:37:15;;;;;;;5.65;2.00;;;7.50;97.20;;;;;;5002352;28;20080;-49
2022/01/08 02:39:43;;;;;;;2.72;2.15;;;7.50;97.60;;;;;;4998443;28;20073;-49
2022/01/08 02:42:14;;;;;;;4.13;1.85;;;7.50;97.30;;;;;;5001102;28;20026;-49
2022/01/08 02:44:41;;;;;;;1.30;1.20;;;7.50;97.20;;;;;;5002271;28;20049;-49
2022/01/08 02:47:08;;;;;;;2.65;1.40;;;7.60;97.30;;;;;;5000175;28;20082;-49
2022/01/08 02:49:36;;;;;;;1.60;1.30;;;7.50;97.20;;;;;;5002988;28;20124;-49
2022/01/08 02:52:03;;;;;;;3.03;1.10;;;7.50;97.20;;;;;;4999439;28;20022;-49
2022/01/08 02:54:28;;;;;;;1.13;0.63;;;7.50;97.20;;;;;;5001990;28;20456;-49
2022/01/08 02:56:54;;;;;;;1.02;1.02;;;7.50;97.20;;;;;;4999715;28;20085;-49
2022/01/08 02:59:19;;;;;;;4.40;2.20;;;7.50;97.20;;;;;;5001548;28;20022;-49
2022/01/08 03:01:46;;;;;;;5.22;1.52;;;7.50;97.20;;;;;;4998781;28;20532;-49
2022/01/08 03:04:11;;;;;;;1.95;1.52;;;7.50;97.20;;;;;;5002230;28;20091;-49
2022/01/08 03:06:37;;;;;;;2.20;1.70;;;7.50;97.20;;;;;;5000486;28;20026;-50
2022/01/08 03:09:04;;;;;;;4.35;1.75;;;7.50;97.10;;;;;;5000549;28;20057;-49
2022/01/08 03:11:30;;;;;;;1.15;1.05;;;7.50;97.20;;;;;;4998553;28;20046;-49
2022/01/08 03:13:56;;;;;;;2.38;1.75;;;7.50;97.20;;;;;;5002857;28;20081;-49
2022/01/08 03:16:22;;;;;;;4.50;2.38;;;7.60;97.30;;;;;;4999242;28;20069;-49
2022/01/08 03:18:49;;;;;;;2.47;1.83;;;7.50;97.20;;;;;;5004027;28;20032;-49
2022/01/08 03:21:18;;;;;;;1.83;1.55;;;7.60;97.20;;;;;;5005754;28;20030;-50
2022/01/08 03:23:49;;;;;;;0.82;0.80;;;7.50;97.20;;;;;;5004622;28;20454;-49
2022/01/08 03:26:17;;;;;;;1.48;1.20;;;7.60;97.20;;;;;;4998743;28;20034;-49
2022/01/08 03:28:44;;;;;;;0.63;0.57;;;7.60;97.20;;;;;;5009648;28;20018;-49
2022/01/08 03:31:10;;;;;;;2.22;1.20;;;7.50;97.20;;;;;;5006623;28;20042;-49
2022/01/08 03:33:36;;;;;;;0.50;0.50;;;7.50;97.10;;;;;;5002040;28;20334;-49
2022/01/08 03:36:02;;;;;;;0.50;0.50;;;7.60;97.10;;;;;;5004902;28;20037;-49
2022/01/08 03:38:28;;;;;;;0.40;0.40;;;7.60;97.10;;;;;;5003649;28;20046;-49
2022/01/08 03:40:53;;;;;;;0.57;0.32;;;7.60;97.10;;;;;;5004884;28;20227;-49
2022/01/08 03:43:19;;;;;;;0.30;0.30;;;7.60;97.10;;;;;;5002351;28;20073;-50
2022/01/08 03:45:44;;;;;;;0.85;0.85;;;7.60;97.20;;;;;;5003202;28;20049;-50
2022/01/08 03:50:52;;;;;;;1.13;0.90;;;7.60;97.10;;;;;;5004825;28;20034;-49
2022/01/08 03:53:17;;;;;;;0.20;0.20;;;7.60;97.10;;;;;;5002506;28;20465;-49
2022/01/08 03:55:43;;;;;;;0.40;0.40;;;7.60;97.10;;;;;;5002972;28;20034;-49
2022/01/08 03:58:09;;;;;;;0.43;0.43;;;7.60;97.00;;;;;;5004881;28;20022;-49
2022/01/08 04:00:35;;;;;;;0.50;0.50;;;7.60;97.10;;;;;;5002024;28;20030;-49
2022/01/08 04:03:00;;;;;;;0.98;0.65;;;7.60;97.10;;;;;;5003893;28;20035;-49
2022/01/08 04:05:26;;;;;;;0.75;0.60;;;7.60;97.00;;;;;;5004827;28;20029;-49
2022/01/08 04:07:52;;;;;;;0.32;0.32;;;7.60;97.00;;;;;;5001715;28;20030;-49
2022/01/08 04:10:17;;;;;;;1.17;0.70;;;7.60;97.00;;;;;;5005965;28;20046;-49
2022/01/08 04:12:47;;;;;;;1.70;0.35;;;7.60;97.00;;;;;;5002259;28;20026;-49
2022/01/08 04:15:33;;;;;;;0.30;0.30;;;7.60;97.00;;;;;;5003913;28;20029;-49
2022/01/08 04:17:59;;;;;;;1.30;0.80;;;7.60;97.00;;;;;;5000642;28;20031;-49
2022/01/08 04:20:25;;;;;;;0.75;0.75;;;7.60;97.00;;;;;;5004225;28;20360;-49
2022/01/08 04:22:51;;;;;;;0.30;0.30;;;7.60;97.00;;;;;;5001258;28;20445;-49
2022/01/08 04:25:20;;;;;;;0.47;0.47;;;7.60;97.00;;;;;;5004868;28;20042;-49
2022/01/08 04:27:46;;;;;;;2.17;0.85;;;7.60;97.00;;;;;;5004164;28;20069;-49
2022/01/08 04:30:12;;;;;;;0.40;0.40;;;7.60;97.00;;;;;;5002558;28;20460;-49
2022/01/08 04:32:39;;;;;;;0.60;0.60;;;7.60;97.00;;;;;;5000406;28;20541;-49
2022/01/08 04:35:05;;;;;;;0.50;0.50;;;7.60;97.00;;;;;;5002230;28;20365;-49
2022/01/08 04:37:31;;;;;;;1.10;0.60;;;7.60;97.00;;;;;;5002730;28;20467;-49
2022/01/08 04:39:56;;;;;;;0.35;0.35;;;7.60;97.00;;;;;;5003853;28;20034;-49
2022/01/08 04:42:22;;;;;;;0.77;0.73;;;7.60;97.00;;;;;;5000922;28;20033;-49
2022/01/08 04:44:48;;;;;;;5.15;0.85;;;7.60;97.00;;;;;;5005787;28;20445;-49
2022/01/08 04:47:14;;;;;;;0.30;0.30;;;7.60;97.00;;;;;;5001332;28;20030;-49
2022/01/08 04:49:39;;;;;;;0.30;0.30;;;7.60;97.00;;;;;;5002496;28;20034;-49
2022/01/08 04:52:05;;;;;;;0.40;0.40;;;7.60;96.90;;;;;;5000978;28;20081;-50
2022/01/08 04:54:31;;;;;;;0.65;0.57;;;7.60;97.00;;;;;;5002485;28;20030;-49
2022/01/08 04:56:57;;;;;;;0.40;0.40;;;7.60;96.90;;;;;;5004916;28;20309;-49
2022/01/08 04:59:22;;;;;;;0.32;0.32;;;7.60;97.00;;;;;;5001519;28;20022;-49
2022/01/08 05:01:48;;;;;;;0.45;0.45;;;7.60;97.00;;;;;;5002242;28;20084;-50
2022/01/08 05:04:14;;;;;;;0.30;0.30;;;7.60;97.00;;;;;;5001572;28;20061;-49
2022/01/08 05:06:39;;;;;;;2.25;0.88;;;7.60;97.10;;;;;;5004775;28;20037;-49
2022/01/08 05:09:05;;;;;;;0.30;0.30;;;7.60;97.00;;;;;;5003874;28;20436;-49
2022/01/08 05:11:31;;;;;;;0.30;0.30;;;7.60;97.10;;;;;;4999497;28;20096;-49
2022/01/08 05:13:57;;;;;;;0.40;0.40;;;7.60;97.10;;;;;;5006744;28;20064;-49
2022/01/08 05:16:26;;;;;;;0.32;0.32;;;7.60;97.00;;;;;;5001609;28;20056;-49
2022/01/08 05:18:54;;;;;;;0.30;0.30;;;7.60;97.00;;;;;;5003675;28;20038;-49
2022/01/08 05:21:26;;;;;;;0.30;0.30;;;7.60;97.00;;;;;;5002866;28;20030;-49
2022/01/08 05:23:56;;;;;;;0.32;0.32;;;7.60;97.00;;;;;;5003041;28;20029;-49
2022/01/08 05:26:24;;;;;;;0.40;0.40;;;7.60;97.00;;;;;;4999457;28;20077;-49
2022/01/08 05:28:50;;;;;;;0.40;0.40;;;7.60;97.00;;;;;;5001455;28;20053;-49
2022/01/08 05:31:18;;;;;;;0.32;0.32;;;7.60;97.00;;;;;;5000399;28;20467;-49
2022/01/08 05:33:43;;;;;;;0.70;0.60;;;7.60;97.00;;;;;;5001370;28;20034;-49
2022/01/08 05:36:09;;;;;;;0.30;0.30;;;7.60;97.00;;;;;;5000876;28;20482;-49
2022/01/08 05:38:35;;;;;;;0.40;0.40;;;7.60;97.00;;;;;;5001633;28;20026;-49
2022/01/08 05:41:00;;;;;;;0.43;0.43;;;7.60;97.00;;;;;;5001056;28;20045;-49
2022/01/08 05:43:26;;;;;;;0.90;0.63;;;7.60;97.00;;;;;;5000868;28;20017;-49
2022/01/08 05:45:52;;;;;;;0.47;0.47;;;7.60;97.00;;;;;;5000688;28;20353;-49
2022/01/08 05:48:18;;;;;;;0.40;0.40;;;7.60;97.00;;;;;;5001522;28;20026;-49
2022/01/08 05:50:44;;;;;;;0.40;0.40;;;7.60;97.00;;;;;;5000218;28;20081;-50
2022/01/08 05:53:09;;;;;;;0.50;0.50;;;7.60;97.00;;;;;;5001339;28;20029;-49
2022/01/08 05:55:36;;;;;;;0.45;0.45;;;7.60;97.00;;;;;;5001557;28;20038;-49
2022/01/08 05:58:02;;;;;;;0.30;0.30;;;7.60;97.10;;;;;;4999766;28;20054;-49
2022/01/08 06:00:27;;;;;;;0.30;0.30;;;7.60;97.00;;;;;;5004463;28;20053;-49
2022/01/08 06:02:53;;;;;;;1.25;0.55;;;7.60;97.00;;;;;;5001017;28;20065;-49
2022/01/08 06:05:19;;;;;;;0.40;0.40;;;7.60;97.10;;;;;;4999881;28;20464;-50
2022/01/08 06:07:44;;;;;;;0.73;0.68;;;7.60;97.10;;;;;;5003555;28;20085;-50
2022/01/08 06:10:10;;;;;;;1.80;0.80;;;7.60;97.10;;;;;;5001197;28;20026;-49
2022/01/08 06:12:36;;;;;;;0.45;0.45;;;7.60;97.00;;;;;;5001548;28;20476;-49
2022/01/08 06:15:02;;;;;;;1.52;0.90;;;7.60;97.10;;;;;;5001493;28;20360;-49
2022/01/08 06:17:27;;;;;;;1.00;0.73;;;7.60;97.10;;;;;;5002124;28;20041;-49
2022/01/08 06:19:53;;;;;;;0.57;0.57;;;7.60;97.10;;;;;;4999813;28;20026;-49
2022/01/08 06:22:19;;;;;;;0.65;0.65;;;7.60;97.10;;;;;;5001641;28;20029;-49
2022/01/08 06:24:44;;;;;;;0.40;0.40;;;7.60;97.10;;;;;;4997836;28;20047;-49
2022/01/08 06:27:10;;;;;;;0.52;0.52;;;7.60;97.20;;;;;;4998315;28;20049;-49
2022/01/08 06:29:36;;;;;;;1.27;0.63;;;7.60;97.20;;;;;;5005767;28;20026;-49
2022/01/08 06:32:02;;;;;;;0.30;0.30;;;7.60;97.30;;;;;;5000707;28;20117;-49
2022/01/08 06:34:27;;;;;;;0.65;0.65;;;7.60;97.20;;;;;;5001789;28;20050;-49
2022/01/08 06:36:53;;;;;;;0.40;0.40;;;7.60;97.20;;;;;;5002638;28;20031;-49
2022/01/08 06:39:19;;;;;;;0.40;0.40;;;7.60;97.20;;;;;;4999705;28;20030;-49
2022/01/08 06:41:44;;;;;;;0.57;0.57;;;7.60;97.30;;;;;;4998742;28;20030;-49
2022/01/08 06:44:11;;;;;;;1.05;0.82;;;7.60;97.30;;;;;;4999693;28;20034;-49
2022/01/08 06:46:36;;;;;;;0.63;0.63;;;7.60;97.30;;;;;;5002134;28;20037;-49
2022/01/08 06:49:03;;;;;;;0.47;0.47;;;7.60;97.30;;;;;;4999806;28;20027;-50
2022/01/08 06:51:28;;;;;;;1.10;0.63;;;7.60;97.40;;;;;;4999776;28;20034;-49
2022/01/08 06:53:54;;;;;;;2.25;0.77;;;7.60;97.30;;;;;;5003295;28;20042;-49
2022/01/08 06:56:20;;;;;;;0.28;0.28;;;7.60;97.30;;;;;;5004573;28;20357;-49
2022/01/08 06:58:46;;;;;;;0.60;0.60;;;7.60;97.40;;;;;;5005463;28;20030;-49
2022/01/08 07:01:12;;;;;;;0.80;0.80;;;7.60;97.30;;;;;;5003117;28;20018;-49
2022/01/08 07:03:38;;;;;;;0.60;0.60;;;7.60;97.30;;;;;;5008626;28;20076;-49
2022/01/08 07:06:04;;;;;;;0.65;0.57;;;7.60;97.30;;;;;;5005715;28;20029;-49
2022/01/08 07:08:30;;;;;;;0.77;0.77;;;7.60;97.40;;;;;;5003413;28;20037;-49
2022/01/08 07:10:56;;;;;;;1.92;0.80;;;7.60;97.30;;;;;;5002781;28;20816;-49
2022/01/08 07:13:21;;;;;;;0.70;0.70;;;7.60;97.40;;;;;;5002335;28;20038;-49
2022/01/08 07:15:47;;;;;;;0.93;0.80;;;7.60;97.50;;;;;;5005609;28;20457;-49
2022/01/08 07:18:13;;;;;;;0.47;0.47;;;7.60;97.50;;;;;;5004601;28;20428;-49
2022/01/08 07:20:38;;;;;;;0.40;0.40;;;7.60;97.50;;;;;;5003151;28;20026;-49
2022/01/08 07:23:04;;;;;;;0.30;0.30;;;7.60;97.50;;;;;;5004250;28;20444;-49
2022/01/08 07:25:30;;;;;;;0.32;0.32;;;7.60;97.50;;;;;;5006686;28;20520;-49
2022/01/08 07:27:56;;;;;;;0.40;0.40;;;7.60;97.40;;;;;;5002912;28;20041;-49
2022/01/08 07:30:21;;;;;;;0.40;0.40;;;7.60;97.50;;;;;;5004717;28;20350;-49
2022/01/08 07:32:50;;;;;;;0.30;0.30;;;7.60;97.50;;;;;;5004521;28;20110;-49
2022/01/08 07:35:16;;;;;;;0.60;0.47;;;7.60;97.50;;;;;;5006080;28;20025;-49
2022/01/08 07:37:43;;;;;;;0.30;0.30;;;7.60;97.50;;;;;;5003948;28;20057;-49
2022/01/08 07:40:11;;;;;;;0.40;0.40;;;7.60;97.50;;;;;;5004961;28;20441;-49
2022/01/08 07:42:38;;;;;;;0.40;0.40;;;7.60;97.50;;;;;;5001927;28;20038;-49
2022/01/08 07:45:04;;;;;;;0.30;0.30;;;7.60;97.50;;;;;;5003943;28;20314;-49
2022/01/08 07:47:30;;;;;;;0.38;0.38;;;7.60;97.50;;;;;;5004859;28;20036;-49
2022/01/08 07:49:56;;;;;;;1.58;1.23;;;7.60;97.40;;;;;;5003100;28;20119;-49
2022/01/08 07:52:21;;;;;;;0.43;0.43;;;7.60;97.40;;;;;;5002098;28;20027;-49
2022/01/08 07:54:47;;;;;;;1.10;0.43;;;7.60;97.60;;;;;;5003820;28;20448;-49
2022/01/08 07:57:13;;;;;;;0.40;0.40;;;7.60;97.50;;;;;;5004395;28;20023;-49
2022/01/08 07:59:39;;;;;;;0.38;0.38;;;7.60;97.50;;;;;;5005699;28;20330;-49
2022/01/08 08:02:04;;;;;;;0.30;0.30;;;7.60;97.50;;;;;;5001427;28;20026;-49
2022/01/08 08:04:30;;;;;;;0.57;0.57;;;7.60;97.40;;;;;;5001965;28;20055;-49
2022/01/08 08:06:55;;;;;;;0.40;0.40;;;7.60;97.50;;;;;;5005651;28;20030;-49
2022/01/08 08:09:21;;;;;;;0.47;0.47;;;7.60;97.50;;;;;;5001831;28;20037;-49
2022/01/08 08:11:47;;;;;;;0.80;0.80;;;7.60;97.50;;;;;;5001147;28;20038;-49
2022/01/08 08:14:12;;;;;;;0.60;0.60;;;7.60;97.50;;;;;;5002119;28;20714;-49
2022/01/08 08:16:38;;;;;;;0.40;0.40;;;7.60;97.50;;;;;;5004224;28;20018;-49
2022/01/08 08:19:03;;;;;;;0.50;0.50;;;7.60;97.40;;;;;;5001718;28;20470;-49
2022/01/08 08:21:30;;;;;;;1.25;0.77;;;7.60;97.60;;;;;;5002858;28;20029;-49
2022/01/08 08:23:55;;;;;;;0.60;0.60;;;7.60;97.50;;;;;;5003912;28;20115;-50
2022/01/08 08:26:21;;;;;;;0.63;0.50;;;7.60;97.50;;;;;;5004613;28;20073;-49
2022/01/08 08:28:47;;;;;;;0.57;0.57;;;7.60;97.50;;;;;;5003948;28;20390;-49
2022/01/08 08:31:12;;;;;;;0.55;0.50;;;7.60;97.60;;;;;;5003212;28;20034;-49
2022/01/08 08:33:38;;;;;;;0.38;0.38;;;7.60;97.50;;;;;;5003236;28;20026;-49
2022/01/08 08:36:05;;;;;;;0.50;0.50;;;7.70;97.60;;;;;;5001484;28;20342;-49
2022/01/08 08:38:31;;;;;;;0.75;0.70;;;7.60;97.50;;;;;;5003569;28;20448;-49
2022/01/08 08:40:56;;;;;;;1.08;0.90;;;7.60;97.60;;;;;;5003318;28;20121;-49
2022/01/08 08:43:22;;;;;;;0.60;0.60;;;7.60;97.60;;;;;;5005491;28;20054;-49
2022/01/08 08:45:48;;;;;;;1.20;0.75;;;7.70;97.60;;;;;;5002401;28;20089;-49
2022/01/08 08:48:15;;;;;;;0.52;0.52;;;7.70;97.60;;;;;;5001666;28;20046;-49
2022/01/08 08:50:41;;;;;;;0.57;0.57;;;7.70;97.60;;;;;;5002324;28;20050;-49
2022/01/08 08:53:07;;;;;;;0.77;0.70;;;7.70;97.60;;;;;;5002378;28;20121;-49
2022/01/08 08:55:32;;;;;;;1.98;0.73;;;7.70;97.60;;;;;;5004227;28;20461;-49
2022/01/08 08:57:59;;;;;;;1.88;0.82;;;7.70;97.90;;;;;;5001088;28;20050;-49
2022/01/08 09:00:25;;;;;;;1.88;0.98;;;7.70;97.60;;;;;;5002216;28;20018;-49
2022/01/08 09:02:51;;;;;;;0.63;0.52;;;7.70;97.60;;;;;;5000501;28;20317;-49
2022/01/08 09:05:16;;;;;;;1.60;0.80;;;7.70;97.60;;;;;;5002733;28;20037;-49
2022/01/08 09:07:42;;;;;;;2.00;0.90;;;7.70;97.60;;;;;;5002574;28;20121;-49
2022/01/08 09:10:09;;;;;;;1.00;0.90;;;7.60;97.60;;;;;;5003478;28;20041;-49
2022/01/08 09:12:37;;;;;;;0.60;0.60;;;7.70;97.60;;;;;;5000418;28;20112;-49
2022/01/08 09:15:04;;;;;;;1.15;0.90;;;7.70;97.70;;;;;;5003374;28;20117;-49
2022/01/08 09:17:30;;;;;;;5.95;1.30;;;7.70;97.60;;;;;;5000272;28;20050;-49
2022/01/08 09:19:55;;;;;;;0.60;0.60;;;7.70;97.60;;;;;;5001678;28;20361;-49
2022/01/08 09:22:21;;;;;;;4.70;1.05;;;7.70;97.60;;;;;;4999881;28;20431;-49
2022/01/08 09:24:47;;;;;;;4.60;1.25;;;7.70;97.60;;;;;;5003064;28;20014;-49
2022/01/08 09:27:13;;;;;;;1.70;0.90;;;7.70;97.70;;;;;;5002549;28;20034;-49
2022/01/08 09:29:39;;;;;;;0.85;0.85;;;7.70;97.70;;;;;;5000680;28;20084;-49
2022/01/08 09:32:08;;;;;;;1.42;1.00;;;7.70;97.70;;;;;;5002005;28;20044;-49
2022/01/08 09:34:36;;;;;;;1.05;1.02;;;7.70;97.70;;;;;;5002283;28;20306;-50
2022/01/08 09:37:03;;;;;;;2.08;1.27;;;7.70;97.70;;;;;;5001110;28;20077;-49
2022/01/08 09:39:30;;;;;;;2.65;1.10;;;7.70;97.70;;;;;;5001437;28;20038;-49
2022/01/08 09:41:55;;;;;;;1.67;1.10;;;7.70;97.70;;;;;;5001624;28;20026;-49
2022/01/08 09:44:22;;;;;;;6.38;1.23;;;7.70;97.70;;;;;;5000517;28;20026;-50
2022/01/08 09:46:48;;;;;;;8.63;1.60;;;7.70;97.70;;;;;;5002285;28;20034;-49
2022/01/08 09:49:13;;;;;;;1.92;1.40;;;7.80;97.70;;;;;;5000139;28;20019;-49
2022/01/08 09:51:39;;;;;;;0.95;0.95;;;7.80;97.70;;;;;;5002864;28;20173;-49
2022/01/08 09:54:05;;;;;;;1.88;1.08;;;7.70;97.60;;;;;;5000911;28;20141;-49
2022/01/08 09:56:32;;;;;;;1.33;1.20;;;7.70;97.70;;;;;;5002614;28;20026;-49
2022/01/08 09:58:58;;;;;;;0.98;0.85;;;7.80;97.70;;;;;;5001082;28;20031;-49
2022/01/08 10:01:36;;;;;;;3.20;1.17;;;7.70;97.70;;;;;;5004758;28;20100;-49
2022/01/08 10:04:04;;;;;;;1.05;0.93;;;7.80;97.70;;;;;;5000145;28;20081;-49
2022/01/08 10:06:32;;;;;;;1.23;1.00;;;7.80;97.60;;;;;;5003009;28;20026;-49
2022/01/08 10:08:58;;;;;;;4.38;1.05;;;7.80;97.70;;;;;;5004993;28;20034;-49
2022/01/08 10:11:26;;;;;;;1.15;0.77;;;7.80;97.60;;;;;;4999053;28;20125;-49
2022/01/08 10:14:03;;;;;;;1.15;1.00;;;7.80;97.60;;;;;;5002590;28;20030;-49
2022/01/08 10:19:37;;;;;;;0.80;0.80;;;7.80;97.70;;;;;;5000075;28;20026;-49
2022/01/08 10:22:15;;;;;;;3.85;0.85;;;7.80;97.70;;;;;;5000293;28;20038;-49
2022/01/08 10:24:40;;;;;;;1.15;0.80;;;7.80;97.80;;;;;;5003014;28;20526;-49
2022/01/08 10:27:07;;;;;;;0.70;0.68;;;7.80;97.90;;;;;;4997555;28;20034;-49
2022/01/08 10:29:34;;;;;;;1.25;0.88;;;7.80;97.90;;;;;;4999195;28;20022;-49
2022/01/08 10:32:00;;;;;;;1.77;0.65;;;7.90;97.90;;;;;;4999068;28;20243;-49
2022/01/08 10:34:30;;;;;;;2.80;1.00;;;7.90;98.00;;;;;;5001468;28;20449;-49
2022/01/08 10:36:56;;;;;;;2.55;1.42;;;7.90;98.00;;;;;;5005558;28;20034;-49
2022/01/08 10:39:35;;;;;;;0.93;0.93;;;7.90;98.00;;;;;;5006474;28;20494;-49
2022/01/08 10:42:08;;;;;;;5.07;0.68;;;7.80;97.90;;;;;;5003681;28;20439;-51
2022/01/08 10:44:33;;;;;;;0.77;0.60;;;7.80;97.90;;;;;;5003039;28;20038;-49
2022/01/08 10:47:13;;;;;;;0.70;0.63;;;7.80;98.00;;;;;;4998250;28;20032;-49
2022/01/08 10:49:48;;;;;;;0.60;0.60;;;7.90;98.00;;;;;;5000780;28;20055;-49
2022/01/08 10:52:16;;;;;;;0.52;0.52;;;7.90;98.10;;;;;;4998743;28;20138;-49
2022/01/08 10:54:47;;;;;;;0.90;0.90;;;7.90;98.00;;;;;;5001295;28;20049;-49
2022/01/08 10:57:14;;;;;;;1.45;1.02;;;7.90;98.00;;;;;;5000805;28;20030;-49
2022/01/08 10:59:42;;;;;;;0.75;0.60;;;7.90;98.10;;;;;;5001211;28;20323;-49
2022/01/08 11:02:12;;;;;;;0.52;0.52;;;7.90;98.30;;;;;;4999831;28;20040;-49
2022/01/08 11:04:47;;;;;;;0.82;0.80;;;7.90;98.30;;;;;;4999138;28;20034;-49
2022/01/08 11:07:22;;;;;;;5.07;0.95;;;7.90;98.30;;;;;;5000614;28;20034;-49
2022/01/08 11:10:04;;;;;;;1.35;0.98;;;7.90;98.40;;;;;;4998915;28;20018;-49
2022/01/08 11:12:36;;;;;;;1.00;0.90;;;7.90;98.30;;;;;;5001423;28;20330;-49
2022/01/08 11:17:45;;;;;;;2.70;0.75;;;8.00;98.50;;;;;;5000257;28;20113;-49
2022/01/08 11:20:24;;;;;;;0.73;0.73;;;7.90;98.50;;;;;;5000873;28;20022;-49
2022/01/08 11:23:00;;;;;;;0.55;0.52;;;8.00;98.70;;;;;;4999091;28;20031;-49
2022/01/08 11:25:35;;;;;;;0.85;0.47;;;7.90;98.60;;;;;;4998890;28;20461;-50
2022/01/08 11:28:05;;;;;;;1.23;0.50;;;8.00;98.70;;;;;;4999832;28;20030;-49
2022/01/08 11:30:34;;;;;;;2.53;0.73;;;8.00;98.70;;;;;;5002226;28;20121;-49
2022/01/08 11:33:06;;;;;;;0.75;0.60;;;8.00;98.50;;;;;;5001367;28;20576;-49
2022/01/08 11:35:35;;;;;;;2.75;0.88;;;8.00;98.60;;;;;;4998923;28;20516;-49
2022/01/08 11:38:04;;;;;;;0.55;0.52;;;8.00;98.60;;;;;;4999873;28;20031;-49
2022/01/08 11:40:30;;;;;;;1.10;1.00;;;8.00;98.60;;;;;;5003731;28;20026;-49
2022/01/08 11:43:02;;;;;;;1.30;0.80;;;8.00;98.60;;;;;;5002986;28;20034;-49
2022/01/08 11:45:33;;;;;;;1.65;1.10;;;8.00;98.80;;;;;;5008328;28;20022;-49
2022/01/08 11:48:03;;;;;;;3.13;1.00;;;8.10;98.70;;;;;;5008572;28;20466;-49
2022/01/08 11:50:30;;;;;;;2.78;0.73;;;8.00;98.70;;;;;;5007632;28;20030;-49
2022/01/08 11:53:17;;;;;;;2.90;0.88;;;8.00;98.80;;;;;;5004169;28;20056;-49
2022/01/08 11:55:49;;;;;;;0.80;0.80;;;8.10;98.80;;;;;;5004315;28;20022;-49
2022/01/08 11:58:19;;;;;;;1.08;0.70;;;8.10;98.80;;;;;;5001029;28;20041;-50
2022/01/08 12:00:48;;;;;;;3.20;0.40;;;8.10;99.00;;;;;;5006314;28;20030;-51
2022/01/08 12:03:30;;;;;;;1.75;0.60;;;8.10;98.80;;;;;;5002572;28;20044;-50
2022/01/08 12:05:56;;;;;;;0.50;0.50;;;8.10;97.70;;;;;;5002298;28;20026;-50
2022/01/08 12:09:07;;;;;;;4.38;1.25;;;8.10;95.20;;;;;;5003169;28;20040;-51
2022/01/08 12:11:35;;;;;;;0.68;0.65;;;8.00;93.60;;;;;;4988233;28;20105;-50
2022/01/08 12:14:12;;;;;;;0.70;0.70;;;8.00;93.90;;;;;;4989758;28;20038;-50
2022/01/08 12:16:42;;;;;;;0.65;0.60;;;8.00;92.50;;;;;;4990177;28;20484;-50
2022/01/08 12:19:25;;;;;;;1.10;0.85;;;7.90;92.70;;;;;;4986734;28;20389;-51
2022/01/08 12:21:51;;;;;;;1.52;0.82;;;8.00;90.70;;;;;;4988215;28;20026;-51
2022/01/08 12:24:26;;;;;;;3.67;1.00;;;7.90;90.20;;;;;;4990325;28;20396;-50
2022/01/08 12:26:53;;;;;;;0.47;0.47;;;7.90;90.30;;;;;;4990557;28;20038;-50
2022/01/08 12:29:32;;;;;;;0.57;0.57;;;7.90;90.50;;;;;;4989285;28;20060;-50
2022/01/08 12:32:37;;;;;;;3.50;0.95;;;7.90;89.70;;;;;;4988426;28;20057;-51
2022/01/08 12:35:19;;;;;;;2.45;0.75;;;7.90;88.60;;;;;;4990291;28;20485;-51
2022/01/08 12:38:12;;;;;;;1.85;0.77;;;7.80;90.10;;;;;;4990106;28;20092;-51
2022/01/08 12:40:43;;;;;;;0.77;0.63;;;7.80;87.60;;;;;;4984700;28;20113;-50
2022/01/08 12:43:31;;;;;;;0.52;0.52;;;7.80;89.60;;;;;;4987847;28;20034;-50
2022/01/08 12:46:22;;;;;;;0.85;0.73;;;7.80;89.90;;;;;;4996203;28;20054;-50
2022/01/08 12:49:05;;;;;;;0.75;0.50;;;7.80;88.00;;;;;;5002649;28;20780;-50
2022/01/08 12:52:05;;;;;;;1.25;1.15;;;7.80;89.80;;;;;;5001169;28;20160;-50
2022/01/08 12:54:31;;;;;;;0.63;0.60;;;7.80;89.00;;;;;;5004921;28;20084;-50
2022/01/08 12:57:00;;;;;;;5.90;0.82;;;7.80;88.70;;;;;;5002064;28;20060;-50
2022/01/08 12:59:32;;;;;;;2.42;1.08;;;7.80;88.50;;;;;;5003480;28;20041;-50
2022/01/08 13:01:58;;;;;;;2.83;0.88;;;7.80;89.20;;;;;;5001546;28;20029;-50
2022/01/08 13:04:24;;;;;;;1.00;0.80;;;7.80;87.80;;;;;;5003967;28;20345;-50
2022/01/08 13:06:50;;;;;;;0.80;0.80;;;7.80;88.70;;;;;;5000968;28;20042;-50
2022/01/08 13:09:16;;;;;;;1.02;0.65;;;7.80;88.00;;;;;;5003069;28;20034;-50
2022/01/08 13:11:44;;;;;;;1.65;0.60;;;7.80;88.00;;;;;;5000239;28;20045;-51
2022/01/08 13:14:14;;;;;;;1.35;0.85;;;7.80;88.50;;;;;;5001580;28;20105;-50
2022/01/08 13:16:49;;;;;;;1.45;0.63;;;7.80;87.90;;;;;;5001421;28;20041;-50
2022/01/08 13:19:16;;;;;;;2.20;1.10;;;7.80;88.50;;;;;;5001349;28;20665;-50
2022/01/08 13:21:43;;;;;;;0.75;0.70;;;7.80;88.00;;;;;;5001911;28;20112;-50
2022/01/08 13:24:22;;;;;;;0.73;0.65;;;7.80;88.40;;;;;;5008881;28;20470;-50
2022/01/08 13:26:51;;;;;;;0.40;0.40;;;7.80;88.50;;;;;;5008633;28;20349;-50
2022/01/08 13:29:31;;;;;;;3.10;0.73;;;7.80;89.10;;;;;;5006790;28;20349;-51